Time;durP1;ratioP1;P1;durP2;ratioP2;P2;SDS_P1;SDS_P2;PMS_P1;PMS_P2;Temp;Humidity;BMP_temperature;BMP_pressure;BME280_temperature;BME280_humidity;BME280_pressure;Samples;Min_cycle;Max_cycle;Signal;HPM_P1;HPM_P2
2021/06/21 00:00:49;;;;;;;6.20;2.17;;;;;;;16.47;92.05;100430.84;1706009;84;21570;-35
2021/06/21 00:03:16;;;;;;;5.83;1.95;;;;;;;16.49;92.12;100425.52;1705819;83;21431;-42
2021/06/21 00:05:43;;;;;;;9.08;1.87;;;;;;;16.48;92.18;100423.39;1706322;83;20921;-38
2021/06/21 00:08:09;;;;;;;8.45;2.60;;;;;;;16.50;92.10;100428.53;1715115;83;21142;-38
2021/06/21 00:10:36;;;;;;;9.65;2.10;;;;;;;16.51;92.03;100425.86;1719458;83;21518;-36
2021/06/21 00:13:04;;;;;;;3.08;2.05;;;;;;;16.53;92.00;100423.16;1719409;82;21560;-36
2021/06/21 00:15:30;;;;;;;10.00;2.58;;;;;;;16.54;91.98;100422.25;1719425;83;21490;-37
2021/06/21 00:17:57;;;;;;;3.20;2.15;;;;;;;16.55;91.89;100423.97;1719347;83;20885;-37
2021/06/21 00:20:25;;;;;;;13.45;2.10;;;;;;;16.57;91.85;100421.28;1719367;83;20905;-37
2021/06/21 00:22:53;;;;;;;7.20;1.85;;;;;;;16.58;91.70;100423.84;1719454;83;20936;-37
2021/06/21 00:25:21;;;;;;;4.30;1.80;;;;;;;16.59;91.56;100416.39;1719379;83;21498;-36
2021/06/21 00:27:48;;;;;;;4.90;1.98;;;;;;;16.60;91.51;100420.70;1719387;83;20932;-38
2021/06/21 00:30:16;;;;;;;8.43;1.55;;;;;;;16.61;91.43;100425.00;1719384;83;21003;-36
2021/06/21 00:32:44;;;;;;;2.85;1.80;;;;;;;16.58;91.23;100417.30;1719496;83;21697;-36
2021/06/21 00:35:12;;;;;;;4.67;1.98;;;;;;;16.55;91.06;100413.52;1719345;83;20939;-36
2021/06/21 00:37:40;;;;;;;6.53;1.62;;;;;;;16.50;91.07;100401.96;1719267;83;20979;-36
2021/06/21 00:40:09;;;;;;;2.98;1.45;;;;;;;16.45;91.03;100401.32;1719299;83;20964;-37
2021/06/21 00:42:36;;;;;;;4.25;1.50;;;;;;;16.39;90.98;100396.34;1719389;83;21058;-36
2021/06/21 00:45:05;;;;;;;6.28;1.65;;;;;;;16.35;90.97;100391.73;1719449;82;21112;-36
2021/06/21 00:47:32;;;;;;;8.15;2.08;;;;;;;16.33;90.99;100395.31;1719276;83;21011;-36
2021/06/21 00:49:58;;;;;;;4.50;2.12;;;;;;;16.29;90.89;100393.28;1719314;83;20983;-38
2021/06/21 00:52:24;;;;;;;6.22;1.30;;;;;;;16.26;90.93;100394.72;1719611;83;21027;-36
2021/06/21 00:54:59;;;;;;;8.05;1.42;;;;;;;16.22;91.00;100395.33;1692694;83;20956;-38
2021/06/21 00:57:19;;;;;;;2.58;1.27;;;;;;;16.21;91.02;100397.99;1718234;83;21152;-35
2021/06/21 00:59:45;;;;;;;2.98;1.52;;;;;;;16.19;91.02;100397.22;1719287;82;20975;-35
2021/06/21 01:02:12;;;;;;;4.30;1.70;;;;;;;16.17;90.88;100398.60;1719416;83;21000;-35
2021/06/21 01:04:38;;;;;;;4.10;1.42;;;;;;;16.15;90.89;100401.70;1719303;83;20889;-38
2021/06/21 01:07:04;;;;;;;7.17;1.55;;;;;;;16.15;91.03;100410.02;1718161;83;20961;-35
2021/06/21 01:09:31;;;;;;;4.87;1.50;;;;;;;16.11;91.10;100405.37;1706129;83;21115;-36
2021/06/21 01:12:06;;;;;;;6.20;2.55;;;;;;;16.07;91.03;100402.06;1705977;84;21071;-37
2021/06/21 01:14:49;;;;;;;10.10;2.27;;;;;;;16.03;91.12;100404.38;1705685;83;20972;-36
2021/06/21 01:17:19;;;;;;;5.45;1.62;;;;;;;16.00;91.35;100409.73;1705870;84;21438;-36
2021/06/21 01:20:22;;;;;;;3.45;1.82;;;;;;;15.98;91.56;100405.03;1706125;83;21526;-35
2021/06/21 01:23:09;;;;;;;3.52;1.50;;;;;;;15.96;91.71;100409.48;1705825;83;21078;-37
2021/06/21 01:26:05;;;;;;;10.82;1.40;;;;;;;15.95;91.83;100407.78;1705882;84;20968;-35
2021/06/21 01:29:10;;;;;;;1.90;1.12;;;;;;;15.93;92.03;100407.86;1706092;84;20957;-38
2021/06/21 01:31:53;;;;;;;7.35;2.00;;;;;;;15.93;92.24;100405.25;1706372;83;20972;-36
2021/06/21 01:34:23;;;;;;;4.72;1.50;;;;;;;15.94;92.50;100408.69;1706108;84;20968;-36
2021/06/21 01:36:52;;;;;;;7.12;1.72;;;;;;;15.91;92.58;100411.44;1706022;83;21827;-35
2021/06/21 01:39:18;;;;;;;2.45;1.70;;;;;;;15.88;92.67;100411.09;1705878;84;21019;-35
2021/06/21 01:41:45;;;;;;;3.70;1.50;;;;;;;15.88;92.75;100410.23;1685727;84;21000;-37
2021/06/21 01:44:17;;;;;;;2.05;1.30;;;;;;;15.86;92.92;100415.97;1705848;83;21012;-36
2021/06/21 01:46:43;;;;;;;2.87;1.40;;;;;;;15.85;93.05;100415.11;1705992;83;21019;-36
2021/06/21 01:49:13;;;;;;;1.90;1.40;;;;;;;15.86;93.31;100418.58;1705945;84;21138;-36
2021/06/21 01:51:40;;;;;;;9.83;1.98;;;;;;;15.85;93.37;100417.72;1705912;84;21577;-36
2021/06/21 01:54:06;;;;;;;75.97;4.28;;;;;;;15.87;93.57;100417.19;1706300;84;21443;-38
2021/06/21 01:56:39;;;;;;;44.55;3.65;;;;;;;15.92;93.99;100418.34;1706008;83;20952;-37
2021/06/21 01:59:06;;;;;;;33.28;3.22;;;;;;;15.96;94.38;100413.86;1706395;84;20956;-38
2021/06/21 02:01:34;;;;;;;42.73;4.22;;;;;;;16.00;94.58;100421.48;1706128;83;21855;-35
2021/06/21 02:04:01;;;;;;;60.10;4.47;;;;;;;16.03;94.70;100421.34;1685622;84;20976;-36
2021/06/21 02:06:30;;;;;;;41.65;4.00;;;;;;;16.06;94.80;100416.03;1705896;84;21003;-37
2021/06/21 02:08:56;;;;;;;41.28;3.85;;;;;;;16.09;94.90;100421.56;1715478;83;21003;-39
2021/06/21 02:11:25;;;;;;;28.20;2.45;;;;;;;16.13;95.10;100429.65;1719580;83;20944;-37
2021/06/21 02:13:52;;;;;;;40.12;3.95;;;;;;;16.18;95.34;100429.47;1719414;83;22164;-38
2021/06/21 02:16:18;;;;;;;42.60;3.42;;;;;;;16.23;95.58;100427.50;1719409;83;20971;-35
2021/06/21 02:18:48;;;;;;;31.42;3.35;;;;;;;16.27;95.69;100426.92;1719487;83;21011;-37
2021/06/21 02:21:14;;;;;;;31.02;4.28;;;;;;;16.30;95.69;100423.73;1693419;83;20936;-38
2021/06/21 02:23:40;;;;;;;34.40;4.72;;;;;;;16.34;95.76;100426.60;1719452;83;21549;-37
2021/06/21 02:26:07;;;;;;;31.15;4.85;;;;;;;16.38;95.75;100420.77;1719642;83;21110;-35
2021/06/21 02:28:34;;;;;;;32.40;4.20;;;;;;;16.45;95.68;100418.74;1719315;83;20979;-37
2021/06/21 02:31:04;;;;;;;28.10;3.27;;;;;;;16.49;95.46;100415.08;1719464;83;21019;-37
2021/06/21 02:33:31;;;;;;;19.15;2.95;;;;;;;16.51;95.23;100410.19;1719633;83;20983;-37
2021/06/21 02:35:59;;;;;;;24.57;2.80;;;;;;;16.55;95.09;100412.66;1719453;83;20995;-37
2021/06/21 02:38:25;;;;;;;37.45;3.25;;;;;;;16.58;95.04;100416.44;1719491;83;21105;-36
2021/06/21 02:40:52;;;;;;;48.30;3.30;;;;;;;16.62;94.95;100413.63;1719473;83;20968;-36
2021/06/21 02:43:19;;;;;;;24.50;3.00;;;;;;;16.66;94.91;100408.66;1719533;83;21008;-36
2021/06/21 02:45:45;;;;;;;17.40;2.70;;;;;;;16.71;94.76;100415.44;1719339;83;21007;-37
2021/06/21 02:48:12;;;;;;;16.75;2.77;;;;;;;16.73;94.50;100409.67;1719499;83;21031;-36
2021/06/21 02:50:45;;;;;;;8.00;2.05;;;;;;;16.75;94.34;100407.40;1719738;83;21050;-35
2021/06/21 02:53:23;;;;;;;22.85;2.10;;;;;;;16.77;94.17;100414.70;1719471;83;20959;-38
2021/06/21 02:56:15;;;;;;;12.13;2.20;;;;;;;16.81;94.02;100416.73;1718597;83;20972;-38
2021/06/21 02:58:44;;;;;;;16.85;2.40;;;;;;;16.85;93.89;100425.27;1719271;83;20948;-39
2021/06/21 03:01:13;;;;;;;8.90;2.02;;;;;;;16.90;93.85;100429.38;1719684;83;21596;-39
2021/06/21 03:03:49;;;;;;;24.77;2.15;;;;;;;16.98;93.72;100421.63;1719398;83;21126;-37
2021/06/21 03:06:16;;;;;;;11.28;1.62;;;;;;;17.05;93.59;100423.08;1719364;83;20908;-37
2021/06/21 03:08:43;;;;;;;16.85;3.27;;;;;;;17.16;93.34;100423.44;1712935;82;20901;-38
2021/06/21 03:11:10;;;;;;;12.65;1.75;;;;;;;17.25;93.12;100416.94;1685790;84;20905;-37
2021/06/21 03:13:37;;;;;;;14.00;1.67;;;;;;;17.36;92.81;100424.28;1706007;84;20932;-38
2021/06/21 03:16:05;;;;;;;11.78;1.80;;;;;;;17.46;92.52;100422.91;1705931;84;21878;-37
2021/06/21 03:18:31;;;;;;;4.60;1.52;;;;;;;17.57;92.18;100415.84;1705829;83;20976;-37
2021/06/21 03:20:59;;;;;;;14.60;1.70;;;;;;;17.68;91.66;100416.64;1705837;82;21090;-37
2021/06/21 03:23:27;;;;;;;5.35;1.50;;;;;;;17.81;91.14;100413.81;1705920;84;20897;-38
2021/06/21 03:25:59;;;;;;;3.60;1.45;;;;;;;17.94;90.45;100411.88;1705894;83;20992;-37
2021/06/21 03:28:27;;;;;;;10.08;1.70;;;;;;;18.09;89.57;100410.30;1706134;83;21743;-36
2021/06/21 03:30:58;;;;;;;3.77;1.60;;;;;;;18.26;88.79;100413.83;1705785;84;21035;-36
2021/06/21 03:33:25;;;;;;;5.92;2.22;;;;;;;18.38;87.86;100418.42;1706153;83;20921;-38
2021/06/21 03:35:51;;;;;;;5.97;1.75;;;;;;;18.53;86.92;100414.16;1705972;83;22189;-37
2021/06/21 03:38:22;;;;;;;6.12;1.92;;;;;;;18.65;86.26;100414.83;1705873;84;21491;-38
2021/06/21 03:40:49;;;;;;;2.92;1.60;;;;;;;18.79;85.51;100411.48;1705223;82;21186;-38
2021/06/21 03:43:19;;;;;;;4.55;1.50;;;;;;;18.95;84.44;100404.94;1705709;84;20980;-37
2021/06/21 03:45:46;;;;;;;8.98;1.75;;;;;;;19.17;83.58;100409.48;1705854;83;20999;-37
2021/06/21 03:48:13;;;;;;;6.72;1.95;;;;;;;19.39;82.40;100410.47;1705916;83;21484;-37
2021/06/21 03:50:39;;;;;;;7.72;2.10;;;;;;;19.63;81.59;100404.75;1705971;83;21486;-36
2021/06/21 03:53:06;;;;;;;7.75;1.80;;;;;;;19.87;80.64;100411.67;1705923;84;21062;-39
2021/06/21 03:55:34;;;;;;;9.13;1.85;;;;;;;20.16;79.86;100414.39;1705757;83;21120;-37
2021/06/21 03:58:00;;;;;;;17.20;1.85;;;;;;;20.50;78.53;100410.20;1705921;83;20969;-38
2021/06/21 04:00:29;;;;;;;17.20;2.67;;;;;;;20.82;77.21;100415.28;1705872;84;21439;-39
2021/06/21 04:02:58;;;;;;;6.05;2.10;;;;;;;21.08;75.90;100408.85;1705970;84;20993;-38
2021/06/21 04:05:26;;;;;;;15.08;2.60;;;;;;;21.38;75.09;100411.80;1705801;83;21115;-37
2021/06/21 04:07:54;;;;;;;13.50;2.83;;;;;;;21.69;73.79;100404.55;1705805;83;20937;-38
2021/06/21 04:10:24;;;;;;;12.50;2.83;;;;;;;21.96;72.82;100401.02;1705785;83;20968;-37
2021/06/21 04:12:51;;;;;;;11.15;2.77;;;;;;;22.20;71.68;100398.48;1705836;83;21016;-38
2021/06/21 04:15:21;;;;;;;8.28;2.22;;;;;;;22.44;70.36;100396.92;1705894;83;21005;-37
2021/06/21 04:17:47;;;;;;;7.10;2.27;;;;;;;22.61;69.90;100393.13;1705818;83;21109;-37
2021/06/21 04:20:17;;;;;;;11.35;2.17;;;;;;;22.85;69.79;100396.30;1705817;84;20932;-38
2021/06/21 04:22:44;;;;;;;6.08;1.95;;;;;;;23.07;68.80;100396.91;1705803;83;20970;-38
2021/06/21 04:25:14;;;;;;;11.80;1.92;;;;;;;23.31;68.00;100402.72;1706308;83;20984;-38
2021/06/21 04:27:40;;;;;;;16.27;2.40;;;;;;;23.44;67.60;100395.59;1587840;84;10000179;-36
2021/06/21 04:30:12;;;;;;;8.95;2.15;;;;;;;23.61;67.30;100393.47;1706075;83;21520;-35
2021/06/21 04:32:39;;;;;;;18.07;2.92;;;;;;;23.81;66.12;100409.17;1685632;84;21283;-35
2021/06/21 04:35:09;;;;;;;28.70;3.85;;;;;;;23.98;63.45;100407.89;1706033;84;21522;-36
2021/06/21 04:37:36;;;;;;;23.00;3.70;;;;;;;24.11;62.39;100408.66;1705928;84;20936;-36
2021/06/21 04:40:04;;;;;;;24.92;3.72;;;;;;;24.21;61.21;100422.51;1706180;83;21134;-38
2021/06/21 04:42:31;;;;;;;21.33;4.10;;;;;;;24.34;62.11;100421.91;1705766;83;20993;-37
2021/06/21 04:44:57;;;;;;;25.10;4.20;;;;;;;24.52;61.70;100430.70;1705811;84;21004;-37
2021/06/21 04:47:24;;;;;;;15.25;3.72;;;;;;;24.66;61.34;100434.91;1705872;84;20928;-38
2021/06/21 04:49:55;;;;;;;19.30;3.15;;;;;;;24.81;60.08;100431.56;1706023;83;21023;-36
2021/06/21 04:52:22;;;;;;;19.75;3.20;;;;;;;25.00;59.51;100436.73;1705892;84;21138;-37
2021/06/21 04:54:52;;;;;;;28.17;3.65;;;;;;;25.20;59.57;100441.27;1705899;84;21513;-35
2021/06/21 04:57:19;;;;;;;17.55;2.80;;;;;;;25.39;57.91;100439.78;1705948;82;20936;-38
2021/06/21 04:59:45;;;;;;;13.15;2.60;;;;;;;25.48;57.13;100437.72;1706064;84;21008;-36
2021/06/21 05:02:12;;;;;;;17.85;3.00;;;;;;;25.53;56.35;100438.18;1705941;83;21011;-37
2021/06/21 05:04:38;;;;;;;19.30;3.42;;;;;;;25.62;55.47;100438.38;1706183;83;21096;-38
2021/06/21 05:07:05;;;;;;;14.50;2.40;;;;;;;25.65;55.96;100436.33;1705804;84;20945;-37
2021/06/21 05:09:33;;;;;;;16.00;3.15;;;;;;;25.70;56.48;100438.61;1705813;83;21320;-38
2021/06/21 05:12:01;;;;;;;9.93;2.85;;;;;;;25.75;56.08;100439.06;1705742;83;20956;-37
2021/06/21 05:14:27;;;;;;;22.40;2.72;;;;;;;25.89;56.63;100442.34;1705936;83;20971;-37
2021/06/21 05:16:54;;;;;;;11.50;2.12;;;;;;;25.99;55.75;100440.63;1705911;83;21092;-38
2021/06/21 05:19:21;;;;;;;13.75;2.70;;;;;;;26.11;55.71;100438.25;1705723;83;21000;-37
2021/06/21 05:24:24;;;;;;;30.25;3.98;;;;;;;26.39;55.69;100434.59;1797666;79;22672;-37
2021/06/21 05:26:52;;;;;;;26.37;3.55;;;;;;;26.51;55.63;100445.13;1757648;80;21035;-36
2021/06/21 05:29:18;;;;;;;21.50;3.20;;;;;;;26.75;55.39;100445.30;1757368;81;21940;-36
2021/06/21 05:31:45;;;;;;;13.30;3.27;;;;;;;27.00;54.39;100453.80;1757371;81;21006;-38
2021/06/21 05:34:12;;;;;;;25.90;3.95;;;;;;;27.13;53.61;100451.72;1757341;81;21027;-37
2021/06/21 05:36:38;;;;;;;27.73;4.15;;;;;;;27.22;53.40;100449.59;1757332;81;21147;-37
2021/06/21 05:39:05;;;;;;;20.00;4.05;;;;;;;27.30;53.19;100456.02;1757528;81;20987;-38
2021/06/21 05:41:32;;;;;;;25.43;4.20;;;;;;;27.42;53.71;100452.75;1757603;81;21685;-37
2021/06/21 05:43:59;;;;;;;20.80;4.10;;;;;;;27.53;52.92;100445.52;1751746;81;21569;-37
2021/06/21 05:46:25;;;;;;;29.02;3.45;;;;;;;27.65;53.14;100444.88;1749173;82;21514;-38
2021/06/21 05:48:53;;;;;;;16.05;3.17;;;;;;;27.83;52.73;100449.00;1749177;82;20980;-37
2021/06/21 05:51:19;;;;;;;19.07;4.10;;;;;;;28.00;53.45;100457.25;1749288;82;20937;-37
2021/06/21 05:53:46;;;;;;;26.85;3.10;;;;;;;28.19;52.67;100454.23;1749165;82;21127;-38
2021/06/21 05:56:14;;;;;;;30.05;3.47;;;;;;;28.25;51.36;100461.13;1748992;82;20967;-38
2021/06/21 05:58:41;;;;;;;21.50;2.85;;;;;;;28.33;51.38;100464.41;1749049;82;20976;-38
2021/06/21 06:01:08;;;;;;;19.35;3.55;;;;;;;28.45;50.48;100464.25;1749009;82;21008;-38
2021/06/21 06:03:35;;;;;;;29.40;3.60;;;;;;;28.44;50.62;100465.23;1749127;81;21003;-37
2021/06/21 06:06:04;;;;;;;30.85;3.87;;;;;;;28.49;50.34;100458.98;1749156;81;21505;-37
2021/06/21 06:08:30;;;;;;;47.45;4.47;;;;;;;28.28;48.99;100462.67;1749056;81;21003;-38
2021/06/21 06:10:57;;;;;;;26.90;3.95;;;;;;;28.00;48.75;100459.05;1749123;81;20983;-36
2021/06/21 06:13:23;;;;;;;25.97;3.40;;;;;;;27.80;49.66;100455.92;1749147;82;22102;-38
2021/06/21 06:15:50;;;;;;;37.25;4.83;;;;;;;27.69;50.42;100457.42;1749044;82;20900;-38
2021/06/21 06:18:16;;;;;;;30.82;5.50;;;;;;;27.62;51.52;100458.94;1749105;82;21113;-39
2021/06/21 06:20:45;;;;;;;34.98;5.03;;;;;;;27.61;50.64;100455.92;1749142;82;20881;-38
2021/06/21 06:23:11;;;;;;;36.65;4.92;;;;;;;27.61;50.43;100456.78;1744297;81;20940;-37
2021/06/21 06:25:38;;;;;;;34.03;5.40;;;;;;;27.64;50.56;100459.16;1735809;82;21021;-39
2021/06/21 06:28:05;;;;;;;29.75;6.15;;;;;;;27.67;50.62;100460.20;1735942;82;20902;-37
2021/06/21 06:30:32;;;;;;;27.25;5.58;;;;;;;27.71;51.08;100460.77;1735840;82;21790;-37
2021/06/21 06:32:58;;;;;;;33.15;6.53;;;;;;;27.89;50.95;100461.38;1736052;81;20948;-39
2021/06/21 06:35:26;;;;;;;43.52;6.50;;;;;;;28.05;50.53;100455.50;1735298;82;20960;-39
2021/06/21 06:37:52;;;;;;;35.33;6.03;;;;;;;28.25;50.40;100461.13;1735336;82;21023;-38
2021/06/21 06:40:19;;;;;;;36.08;7.17;;;;;;;28.36;49.37;100468.11;1735456;82;20968;-37
2021/06/21 06:42:46;;;;;;;26.97;7.22;;;;;;;28.49;49.02;100462.97;1735249;82;21193;-38
2021/06/21 06:45:15;;;;;;;42.48;8.75;;;;;;;28.49;48.77;100462.97;1735251;82;21023;-37
2021/06/21 06:47:41;;;;;;;23.90;6.10;;;;;;;28.46;48.27;100462.76;1735271;82;22260;-37
2021/06/21 06:50:08;;;;;;;24.82;7.22;;;;;;;28.51;48.47;100468.98;1735457;82;21483;-36
2021/06/21 06:52:35;;;;;;;39.33;7.70;;;;;;;28.55;48.57;100463.70;1735275;82;20933;-36
2021/06/21 06:57:47;;;;;;;29.72;6.30;;;;;;;28.88;49.56;100466.81;1736082;82;21546;-37
2021/06/21 07:00:15;;;;;;;30.70;6.25;;;;;;;28.93;47.20;100463.71;1735541;82;21470;-38
2021/06/21 07:02:43;;;;;;;24.87;5.95;;;;;;;28.81;48.63;100467.92;1706370;84;20984;-37
2021/06/21 07:05:11;;;;;;;21.75;6.15;;;;;;;28.68;49.00;100467.37;1706427;84;20992;-40
2021/06/21 07:07:37;;;;;;;22.80;6.10;;;;;;;28.75;48.77;100468.96;1706436;84;21138;-39
2021/06/21 07:10:06;;;;;;;26.80;5.78;;;;;;;28.83;49.00;100471.75;1706344;84;20996;-40
2021/06/21 07:12:34;;;;;;;28.07;6.30;;;;;;;28.91;49.12;100477.16;1706480;83;20992;-38
2021/06/21 07:15:00;;;;;;;33.48;6.50;;;;;;;29.05;48.12;100475.00;1706539;84;20953;-39
2021/06/21 07:17:27;;;;;;;31.97;5.70;;;;;;;29.15;47.97;100469.11;1706420;84;20956;-37
2021/06/21 07:19:53;;;;;;;38.45;6.92;;;;;;;29.26;48.15;100466.73;1706488;84;21797;-38
2021/06/21 07:22:19;;;;;;;34.63;7.80;;;;;;;29.39;48.69;100461.03;1706492;84;20983;-39
2021/06/21 07:24:46;;;;;;;19.75;5.97;;;;;;;29.52;47.06;100464.20;1713613;83;21347;-38
2021/06/21 07:27:12;;;;;;;29.85;6.92;;;;;;;29.51;48.47;100466.53;1716061;82;21234;-38
2021/06/21 07:29:39;;;;;;;29.10;7.17;;;;;;;29.52;48.02;100470.86;1714283;83;20972;-37
2021/06/21 07:32:06;;;;;;;29.25;7.33;;;;;;;29.63;47.97;100462.28;1714022;83;21781;-37
2021/06/21 07:34:34;;;;;;;37.35;8.20;;;;;;;29.74;48.14;100464.73;1714274;83;21031;-39
2021/06/21 07:37:00;;;;;;;31.35;8.28;;;;;;;29.96;47.46;100466.05;1714323;83;20941;-38
2021/06/21 07:39:27;;;;;;;40.83;9.30;;;;;;;30.11;46.67;100462.35;1714411;83;20984;-37
2021/06/21 07:41:53;;;;;;;28.52;9.30;;;;;;;30.19;46.43;100459.39;1714342;83;20943;-38
2021/06/21 07:44:20;;;;;;;35.40;11.03;;;;;;;30.21;45.40;100466.26;1714299;83;21153;-38
2021/06/21 07:46:47;;;;;;;44.73;11.63;;;;;;;30.30;45.45;100469.82;1714608;83;20952;-38
2021/06/21 07:49:15;;;;;;;87.08;13.32;;;;;;;30.44;45.29;100479.08;1714198;83;20984;-38
2021/06/21 07:51:43;;;;;;;39.90;13.20;;;;;;;30.52;46.42;100482.30;1714299;83;20933;-38
2021/06/21 07:54:11;;;;;;;51.23;14.25;;;;;;;30.61;43.52;100481.36;1713888;83;21493;-37
2021/06/21 07:56:38;;;;;;;50.38;14.00;;;;;;;30.50;44.15;100484.28;1713716;83;21168;-35
2021/06/21 07:59:04;;;;;;;58.17;12.88;;;;;;;30.47;45.69;100487.28;1714136;83;21015;-38
2021/06/21 08:01:32;;;;;;;80.38;12.18;;;;;;;30.52;45.22;100485.78;1713882;83;21450;-37
2021/06/21 08:03:59;;;;;;;68.95;12.73;;;;;;;30.56;44.74;100482.80;1713993;83;21327;-37
2021/06/21 08:06:25;;;;;;;58.52;12.28;;;;;;;30.56;46.06;100485.46;1713823;83;20945;-39
2021/06/21 08:08:53;;;;;;;51.77;13.40;;;;;;;30.60;46.33;100487.66;1713919;83;21140;-37
2021/06/21 08:11:19;;;;;;;65.20;16.27;;;;;;;30.79;46.51;100487.13;1713759;83;20901;-38
2021/06/21 08:13:45;;;;;;;61.73;16.85;;;;;;;31.04;45.27;100484.03;1714026;83;21026;-37
2021/06/21 08:16:13;;;;;;;62.98;14.83;;;;;;;31.17;45.87;100487.57;1713809;83;21526;-37
2021/06/21 08:18:39;;;;;;;54.77;14.85;;;;;;;31.21;45.08;100488.13;1713924;83;21438;-38
2021/06/21 08:21:06;;;;;;;54.67;15.08;;;;;;;31.31;45.42;100482.64;1714096;83;22163;-37
2021/06/21 08:23:33;;;;;;;65.00;15.30;;;;;;;31.42;45.09;100484.16;1713537;83;20987;-39
2021/06/21 08:26:02;;;;;;;69.03;15.65;;;;;;;31.51;45.36;100490.70;1713716;83;21044;-38
2021/06/21 08:28:30;;;;;;;55.38;15.20;;;;;;;31.76;44.19;100496.55;1713616;83;20952;-38
2021/06/21 08:30:56;;;;;;;52.48;14.20;;;;;;;31.93;44.43;100486.70;1714095;83;21003;-36
2021/06/21 08:33:23;;;;;;;52.85;13.35;;;;;;;32.05;44.10;100484.52;1713755;83;21149;-38
2021/06/21 08:35:49;;;;;;;54.40;13.00;;;;;;;31.98;44.32;100477.70;1714089;83;20936;-37
2021/06/21 08:38:16;;;;;;;69.10;12.78;;;;;;;32.01;44.38;100488.06;1713858;83;21458;-37
2021/06/21 08:40:42;;;;;;;45.78;11.45;;;;;;;32.07;44.34;100490.05;1713779;83;21458;-38
2021/06/21 08:43:10;;;;;;;57.10;12.58;;;;;;;32.21;44.25;100489.02;1713672;83;20901;-36
2021/06/21 08:45:37;;;;;;;62.23;10.60;;;;;;;32.30;43.33;100486.67;1713808;83;21102;-35
2021/06/21 08:48:08;;;;;;;72.72;11.38;;;;;;;32.30;43.73;100493.36;1713676;83;20944;-39
2021/06/21 08:50:39;;;;;;;56.65;10.75;;;;;;;32.48;43.25;100499.05;1713732;83;21180;-39
2021/06/21 08:53:06;;;;;;;53.08;9.15;;;;;;;32.59;43.25;100499.16;1713684;83;20948;-39
2021/06/21 08:55:32;;;;;;;44.83;10.03;;;;;;;32.67;42.36;100498.63;1714066;83;20983;-39
2021/06/21 08:57:58;;;;;;;81.17;10.20;;;;;;;32.84;41.83;100505.28;1713680;83;21141;-38
2021/06/21 09:00:25;;;;;;;60.35;10.08;;;;;;;32.92;42.03;100495.06;1713893;82;21562;-44
2021/06/21 09:02:51;;;;;;;47.78;9.75;;;;;;;32.89;42.49;100505.62;1713867;83;21003;-38
2021/06/21 09:05:18;;;;;;;47.10;9.80;;;;;;;32.90;42.83;100507.80;1713706;83;21043;-36
2021/06/21 09:07:46;;;;;;;71.28;10.65;;;;;;;32.94;42.99;100500.56;1713819;83;20945;-37
2021/06/21 09:10:25;;;;;;;72.45;9.78;;;;;;;33.05;42.64;100498.52;1713971;83;21818;-38
2021/06/21 09:13:07;;;;;;;63.58;8.93;;;;;;;33.20;42.55;100499.42;1713729;83;20972;-38
2021/06/21 09:15:37;;;;;;;53.85;8.90;;;;;;;33.39;41.88;100500.83;1713722;83;21019;-39
2021/06/21 09:18:33;;;;;;;67.27;9.68;;;;;;;33.49;40.04;100499.30;1712452;83;21021;-39
2021/06/21 09:21:26;;;;;;;72.47;10.10;;;;;;;33.41;40.06;100495.27;1713786;83;21003;-38
2021/06/21 09:23:56;;;;;;;81.35;11.97;;;;;;;33.28;41.46;100497.20;1711788;83;21558;-38
2021/06/21 09:26:28;;;;;;;86.10;14.95;;;;;;;33.28;40.88;100487.00;1705370;83;21453;-40
2021/06/21 09:28:59;;;;;;;74.80;9.95;;;;;;;33.37;42.13;100499.33;1706340;84;20902;-38
2021/06/21 09:31:26;;;;;;;76.85;10.90;;;;;;;33.41;41.15;100496.62;1706060;83;20945;-38
2021/06/21 09:33:54;;;;;;;87.33;10.82;;;;;;;33.44;42.48;100502.17;1706312;84;21031;-39
2021/06/21 09:36:34;;;;;;;62.80;8.58;;;;;;;33.46;42.11;100500.14;1686565;84;20984;-39
2021/06/21 09:39:20;;;;;;;92.33;12.85;;;;;;;33.55;42.65;100502.27;1706583;84;21470;-39
2021/06/21 09:42:10;;;;;;;81.97;9.13;;;;;;;33.53;41.76;100505.97;1706743;84;21561;-37
2021/06/21 09:44:47;;;;;;;59.45;8.20;;;;;;;33.37;40.62;100505.55;1717730;82;21016;-38
2021/06/21 09:47:20;;;;;;;86.90;8.03;;;;;;;33.18;40.41;100510.01;1713606;82;20981;-38
2021/06/21 09:50:18;;;;;;;72.35;8.78;;;;;;;32.81;41.28;100520.37;1727231;82;21095;-40
2021/06/21 09:52:51;;;;;;;74.25;10.55;;;;;;;32.74;41.36;100520.73;1735659;82;21001;-40
2021/06/21 09:55:31;;;;;;;79.85;10.60;;;;;;;32.86;42.19;100513.97;1735494;82;21012;-39
2021/06/21 09:58:20;;;;;;;103.40;11.75;;;;;;;32.96;43.65;100518.64;1735633;82;21502;-40
2021/06/21 10:01:09;;;;;;;83.92;9.65;;;;;;;33.00;42.21;100518.31;1735928;82;20972;-39
2021/06/21 10:03:40;;;;;;;51.73;7.53;;;;;;;33.10;42.14;100513.56;1724074;82;21166;-38
2021/06/21 10:06:10;;;;;;;60.20;6.78;;;;;;;33.08;41.33;100511.05;1735896;81;20996;-38
2021/06/21 10:08:53;;;;;;;55.33;9.15;;;;;;;33.23;41.24;100511.16;1735797;82;20976;-39
2021/06/21 10:11:37;;;;;;;52.20;8.28;;;;;;;33.12;40.51;100504.84;1736274;81;21055;-39
2021/06/21 10:14:07;;;;;;;92.22;9.08;;;;;;;33.13;41.71;100504.34;1736521;82;21483;-37
2021/06/21 10:16:35;;;;;;;61.83;8.45;;;;;;;33.22;41.57;100502.79;1735941;82;21096;-39
2021/06/21 10:19:02;;;;;;;55.25;8.25;;;;;;;33.25;39.84;100499.75;1735569;82;21047;-39
2021/06/21 10:21:28;;;;;;;64.55;7.00;;;;;;;33.21;39.77;100509.66;1735242;82;21024;-38
2021/06/21 10:23:55;;;;;;;51.42;6.20;;;;;;;33.20;39.94;100491.37;1737028;81;21471;-39
2021/06/21 10:26:22;;;;;;;54.10;7.15;;;;;;;33.21;38.91;100499.75;1749403;82;20897;-39
2021/06/21 10:28:50;;;;;;;51.42;7.03;;;;;;;33.13;39.20;100486.41;1749337;82;21136;-39
2021/06/21 10:31:21;;;;;;;73.00;9.00;;;;;;;33.16;40.20;100488.73;1749261;82;21003;-38
2021/06/21 10:33:48;;;;;;;78.95;10.30;;;;;;;33.21;39.98;100497.07;1748596;82;20881;-39
2021/06/21 10:36:14;;;;;;;94.97;11.80;;;;;;;33.33;41.00;100489.98;1714903;82;20999;-37
2021/06/21 10:38:41;;;;;;;85.97;11.48;;;;;;;33.38;40.03;100496.48;1749457;82;20972;-39
2021/06/21 10:41:08;;;;;;;89.35;12.13;;;;;;;33.33;41.85;100492.66;1749324;82;21603;-40
2021/06/21 10:43:47;;;;;;;113.08;14.75;;;;;;;33.44;41.65;100499.49;1749038;82;20944;-38
2021/06/21 10:46:30;;;;;;;124.78;14.03;;;;;;;33.48;41.09;100497.63;1749279;82;21490;-39
2021/06/21 10:49:07;;;;;;;125.25;15.40;;;;;;;33.51;42.44;100491.90;1749306;82;20972;-40
2021/06/21 10:51:41;;;;;;;136.43;16.50;;;;;;;33.65;41.80;100498.83;1749399;82;20995;-37
2021/06/21 10:54:21;;;;;;;133.87;15.50;;;;;;;33.59;41.78;100501.70;1749641;82;21964;-40
2021/06/21 10:56:52;;;;;;;138.47;16.93;;;;;;;33.58;42.10;100500.56;1749124;82;20963;-39
2021/06/21 10:59:21;;;;;;;133.82;16.60;;;;;;;33.69;42.02;100497.45;1749474;82;21533;-40
2021/06/21 11:01:56;;;;;;;149.25;17.48;;;;;;;33.58;41.84;100499.22;1749193;82;20952;-38
2021/06/21 11:04:38;;;;;;;;;;;;;;;33.52;43.76;100502.11;1752232;82;21003;-37
2021/06/21 11:07:19;;;;;;;145.15;17.60;;;;;;;33.77;42.38;100492.03;1749271;82;21161;-39
2021/06/21 11:09:54;;;;;;;148.45;18.73;;;;;;;34.07;42.68;100500.67;1749516;82;21011;-39
2021/06/21 11:12:34;;;;;;;169.53;19.43;;;;;;;34.25;42.04;100491.77;1749650;81;20964;-39
2021/06/21 11:15:14;;;;;;;144.80;19.02;;;;;;;34.47;42.03;100489.69;1749255;82;21548;-39
2021/06/21 11:17:54;;;;;;;197.90;21.87;;;;;;;34.58;41.04;100495.98;1749297;82;20917;-38
2021/06/21 11:20:41;;;;;;;191.57;23.55;;;;;;;34.60;40.31;100491.75;1749384;82;21194;-40
2021/06/21 11:23:16;;;;;;;198.47;23.45;;;;;;;34.47;39.00;100497.25;1749192;82;20924;-39
2021/06/21 11:25:45;;;;;;;182.22;22.00;;;;;;;34.22;40.45;100500.20;1709203;82;21456;-39
2021/06/21 11:28:42;;;;;;;208.23;24.00;;;;;;;34.30;40.27;100500.63;1735087;82;21483;-39
2021/06/21 11:31:28;;;;;;;176.87;21.15;;;;;;;34.31;40.10;100497.41;1708577;83;20972;-39
2021/06/21 11:34:04;;;;;;;176.47;21.17;;;;;;;34.35;39.26;100492.00;1732747;82;21173;-39